sensor_id;sensor_type;location;lat;lon;timestamp;P1;durP1;ratioP1;P2;durP2;ratioP2
4766;SDS011;2397;53.576;9.746;2023-06-19T00:00:48;6.30;;;5.80;;
4766;SDS011;2397;53.576;9.746;2023-06-19T00:03:15;6.90;;;6.40;;
4766;SDS011;2397;53.576;9.746;2023-06-19T00:05:42;7.17;;;6.40;;
4766;SDS011;2397;53.576;9.746;2023-06-19T00:08:09;7.37;;;6.83;;
4766;SDS011;2397;53.576;9.746;2023-06-19T00:10:36;6.43;;;5.93;;
4766;SDS011;2397;53.576;9.746;2023-06-19T00:13:02;6.80;;;6.20;;
4766;SDS011;2397;53.576;9.746;2023-06-19T00:15:29;6.83;;;6.33;;
4766;SDS011;2397;53.576;9.746;2023-06-19T00:17:56;6.43;;;5.80;;
4766;SDS011;2397;53.576;9.746;2023-06-19T00:20:23;6.70;;;6.20;;
4766;SDS011;2397;53.576;9.746;2023-06-19T00:22:51;6.27;;;5.77;;
4766;SDS011;2397;53.576;9.746;2023-06-19T00:25:18;6.93;;;6.33;;
4766;SDS011;2397;53.576;9.746;2023-06-19T00:27:48;7.40;;;6.77;;
4766;SDS011;2397;53.576;9.746;2023-06-19T00:30:15;6.67;;;6.07;;
4766;SDS011;2397;53.576;9.746;2023-06-19T00:32:42;7.20;;;6.10;;
4766;SDS011;2397;53.576;9.746;2023-06-19T00:35:13;6.70;;;6.20;;
4766;SDS011;2397;53.576;9.746;2023-06-19T00:37:41;6.73;;;6.23;;
4766;SDS011;2397;53.576;9.746;2023-06-19T00:40:25;6.40;;;5.90;;
4766;SDS011;2397;53.576;9.746;2023-06-19T00:42:54;7.10;;;6.50;;
4766;SDS011;2397;53.576;9.746;2023-06-19T00:45:21;6.47;;;5.83;;
4766;SDS011;2397;53.576;9.746;2023-06-19T00:47:51;7.10;;;6.40;;
4766;SDS011;2397;53.576;9.746;2023-06-19T00:50:19;9.43;;;6.63;;
4766;SDS011;2397;53.576;9.746;2023-06-19T00:52:47;6.67;;;6.00;;
4766;SDS011;2397;53.576;9.746;2023-06-19T00:55:15;6.90;;;6.40;;
4766;SDS011;2397;53.576;9.746;2023-06-19T00:57:42;7.30;;;6.43;;
4766;SDS011;2397;53.576;9.746;2023-06-19T01:00:10;8.00;;;6.70;;
4766;SDS011;2397;53.576;9.746;2023-06-19T01:02:38;6.30;;;5.80;;
4766;SDS011;2397;53.576;9.746;2023-06-19T01:05:06;8.50;;;6.70;;
4766;SDS011;2397;53.576;9.746;2023-06-19T01:10:18;6.90;;;6.20;;
4766;SDS011;2397;53.576;9.746;2023-06-19T01:13:01;6.47;;;6.00;;
4766;SDS011;2397;53.576;9.746;2023-06-19T01:15:34;7.93;;;6.80;;
4766;SDS011;2397;53.576;9.746;2023-06-19T01:18:01;7.23;;;6.53;;
4766;SDS011;2397;53.576;9.746;2023-06-19T01:20:28;7.63;;;6.97;;
4766;SDS011;2397;53.576;9.746;2023-06-19T01:22:57;6.83;;;6.20;;
4766;SDS011;2397;53.576;9.746;2023-06-19T01:25:23;7.40;;;6.70;;
4766;SDS011;2397;53.576;9.746;2023-06-19T01:27:50;7.40;;;6.80;;
4766;SDS011;2397;53.576;9.746;2023-06-19T01:30:17;7.70;;;7.00;;
4766;SDS011;2397;53.576;9.746;2023-06-19T01:35:33;7.53;;;6.70;;
4766;SDS011;2397;53.576;9.746;2023-06-19T01:38:02;7.03;;;6.40;;
4766;SDS011;2397;53.576;9.746;2023-06-19T01:40:31;7.90;;;7.20;;
4766;SDS011;2397;53.576;9.746;2023-06-19T01:42:59;7.07;;;6.47;;
4766;SDS011;2397;53.576;9.746;2023-06-19T01:45:28;7.30;;;6.60;;
4766;SDS011;2397;53.576;9.746;2023-06-19T01:47:56;7.17;;;6.57;;
4766;SDS011;2397;53.576;9.746;2023-06-19T01:50:23;7.33;;;6.83;;
4766;SDS011;2397;53.576;9.746;2023-06-19T01:52:51;7.73;;;7.03;;
4766;SDS011;2397;53.576;9.746;2023-06-19T01:55:18;7.90;;;7.20;;
4766;SDS011;2397;53.576;9.746;2023-06-19T01:57:46;7.57;;;6.87;;
4766;SDS011;2397;53.576;9.746;2023-06-19T02:00:12;7.53;;;6.93;;
4766;SDS011;2397;53.576;9.746;2023-06-19T02:02:40;10.20;;;6.60;;
4766;SDS011;2397;53.576;9.746;2023-06-19T02:05:07;9.30;;;7.67;;
4766;SDS011;2397;53.576;9.746;2023-06-19T02:07:34;7.47;;;6.87;;
4766;SDS011;2397;53.576;9.746;2023-06-19T02:10:01;8.57;;;7.67;;
4766;SDS011;2397;53.576;9.746;2023-06-19T02:12:29;7.80;;;7.10;;
4766;SDS011;2397;53.576;9.746;2023-06-19T02:14:55;9.20;;;8.33;;
4766;SDS011;2397;53.576;9.746;2023-06-19T02:17:22;8.00;;;7.27;;
4766;SDS011;2397;53.576;9.746;2023-06-19T02:19:48;7.93;;;7.23;;
4766;SDS011;2397;53.576;9.746;2023-06-19T02:22:17;7.57;;;7.00;;
4766;SDS011;2397;53.576;9.746;2023-06-19T02:24:45;7.50;;;6.90;;
4766;SDS011;2397;53.576;9.746;2023-06-19T02:27:12;8.13;;;7.33;;
4766;SDS011;2397;53.576;9.746;2023-06-19T02:29:38;7.60;;;7.00;;
4766;SDS011;2397;53.576;9.746;2023-06-19T02:32:05;8.70;;;8.00;;
4766;SDS011;2397;53.576;9.746;2023-06-19T02:34:32;8.20;;;7.50;;
4766;SDS011;2397;53.576;9.746;2023-06-19T02:36:59;8.70;;;7.90;;
4766;SDS011;2397;53.576;9.746;2023-06-19T02:39:26;9.87;;;7.83;;
4766;SDS011;2397;53.576;9.746;2023-06-19T02:41:53;8.30;;;7.60;;
4766;SDS011;2397;53.576;9.746;2023-06-19T02:44:20;8.60;;;7.90;;
4766;SDS011;2397;53.576;9.746;2023-06-19T02:46:46;9.13;;;8.40;;
4766;SDS011;2397;53.576;9.746;2023-06-19T02:49:14;9.20;;;8.00;;
4766;SDS011;2397;53.576;9.746;2023-06-19T02:51:41;7.60;;;7.03;;
4766;SDS011;2397;53.576;9.746;2023-06-19T02:54:08;9.60;;;8.60;;
4766;SDS011;2397;53.576;9.746;2023-06-19T02:56:35;8.90;;;8.10;;
4766;SDS011;2397;53.576;9.746;2023-06-19T02:59:01;8.17;;;7.47;;
4766;SDS011;2397;53.576;9.746;2023-06-19T03:01:28;8.50;;;7.70;;
4766;SDS011;2397;53.576;9.746;2023-06-19T03:03:55;9.47;;;8.30;;
4766;SDS011;2397;53.576;9.746;2023-06-19T03:06:21;8.80;;;8.10;;
4766;SDS011;2397;53.576;9.746;2023-06-19T03:08:48;9.60;;;8.80;;
4766;SDS011;2397;53.576;9.746;2023-06-19T03:11:15;10.10;;;9.07;;
4766;SDS011;2397;53.576;9.746;2023-06-19T03:13:46;9.57;;;8.67;;
4766;SDS011;2397;53.576;9.746;2023-06-19T03:16:13;8.97;;;8.27;;
4766;SDS011;2397;53.576;9.746;2023-06-19T03:18:44;9.70;;;8.83;;
4766;SDS011;2397;53.576;9.746;2023-06-19T03:21:15;8.33;;;7.53;;
4766;SDS011;2397;53.576;9.746;2023-06-19T03:23:44;9.50;;;8.67;;
4766;SDS011;2397;53.576;9.746;2023-06-19T03:26:11;9.80;;;8.17;;
4766;SDS011;2397;53.576;9.746;2023-06-19T03:28:40;9.50;;;8.47;;
4766;SDS011;2397;53.576;9.746;2023-06-19T03:31:08;9.90;;;8.63;;
4766;SDS011;2397;53.576;9.746;2023-06-19T03:33:35;9.33;;;8.50;;
4766;SDS011;2397;53.576;9.746;2023-06-19T03:36:02;9.40;;;8.50;;
4766;SDS011;2397;53.576;9.746;2023-06-19T03:38:44;9.10;;;8.33;;
4766;SDS011;2397;53.576;9.746;2023-06-19T03:41:13;8.27;;;7.57;;
4766;SDS011;2397;53.576;9.746;2023-06-19T03:43:40;9.67;;;8.10;;
4766;SDS011;2397;53.576;9.746;2023-06-19T03:46:07;9.00;;;8.30;;
4766;SDS011;2397;53.576;9.746;2023-06-19T03:48:34;9.13;;;8.33;;
4766;SDS011;2397;53.576;9.746;2023-06-19T03:51:00;9.23;;;8.33;;
4766;SDS011;2397;53.576;9.746;2023-06-19T03:53:27;8.80;;;7.90;;
4766;SDS011;2397;53.576;9.746;2023-06-19T03:55:54;9.40;;;8.50;;
4766;SDS011;2397;53.576;9.746;2023-06-19T03:58:22;14.57;;;8.80;;
4766;SDS011;2397;53.576;9.746;2023-06-19T04:00:51;9.37;;;8.37;;
4766;SDS011;2397;53.576;9.746;2023-06-19T04:03:18;11.03;;;8.70;;
4766;SDS011;2397;53.576;9.746;2023-06-19T04:05:44;9.37;;;8.47;;
4766;SDS011;2397;53.576;9.746;2023-06-19T04:08:11;8.73;;;7.83;;
4766;SDS011;2397;53.576;9.746;2023-06-19T04:10:41;9.30;;;8.60;;
4766;SDS011;2397;53.576;9.746;2023-06-19T04:13:08;9.03;;;8.20;;
4766;SDS011;2397;53.576;9.746;2023-06-19T04:15:35;8.90;;;7.30;;
4766;SDS011;2397;53.576;9.746;2023-06-19T04:18:02;9.00;;;8.30;;
4766;SDS011;2397;53.576;9.746;2023-06-19T04:20:29;11.73;;;9.63;;
4766;SDS011;2397;53.576;9.746;2023-06-19T04:22:56;11.10;;;9.37;;
4766;SDS011;2397;53.576;9.746;2023-06-19T04:25:22;10.33;;;9.33;;
4766;SDS011;2397;53.576;9.746;2023-06-19T04:27:49;10.70;;;9.00;;
4766;SDS011;2397;53.576;9.746;2023-06-19T04:30:15;13.20;;;9.93;;
4766;SDS011;2397;53.576;9.746;2023-06-19T04:32:42;9.83;;;9.00;;
4766;SDS011;2397;53.576;9.746;2023-06-19T04:35:09;8.60;;;7.83;;
4766;SDS011;2397;53.576;9.746;2023-06-19T04:37:36;10.27;;;7.90;;
4766;SDS011;2397;53.576;9.746;2023-06-19T04:40:02;9.50;;;8.60;;
4766;SDS011;2397;53.576;9.746;2023-06-19T04:42:33;8.97;;;8.07;;
4766;SDS011;2397;53.576;9.746;2023-06-19T04:45:01;9.23;;;8.50;;
4766;SDS011;2397;53.576;9.746;2023-06-19T04:47:28;9.10;;;8.40;;
4766;SDS011;2397;53.576;9.746;2023-06-19T04:50:13;9.23;;;8.43;;
4766;SDS011;2397;53.576;9.746;2023-06-19T04:52:41;9.23;;;8.50;;
4766;SDS011;2397;53.576;9.746;2023-06-19T04:55:08;10.10;;;9.10;;
4766;SDS011;2397;53.576;9.746;2023-06-19T04:57:36;9.83;;;8.97;;
4766;SDS011;2397;53.576;9.746;2023-06-19T05:00:06;10.80;;;9.70;;
4766;SDS011;2397;53.576;9.746;2023-06-19T05:02:36;10.63;;;9.50;;
4766;SDS011;2397;53.576;9.746;2023-06-19T05:05:02;9.70;;;8.90;;
4766;SDS011;2397;53.576;9.746;2023-06-19T05:07:30;10.07;;;9.17;;
4766;SDS011;2397;53.576;9.746;2023-06-19T05:09:59;11.70;;;9.87;;
4766;SDS011;2397;53.576;9.746;2023-06-19T05:12:26;10.30;;;9.40;;
4766;SDS011;2397;53.576;9.746;2023-06-19T05:14:53;10.27;;;9.37;;
4766;SDS011;2397;53.576;9.746;2023-06-19T05:17:20;10.23;;;9.00;;
4766;SDS011;2397;53.576;9.746;2023-06-19T05:19:47;10.27;;;9.37;;
4766;SDS011;2397;53.576;9.746;2023-06-19T05:22:14;12.13;;;10.60;;
4766;SDS011;2397;53.576;9.746;2023-06-19T05:24:40;10.33;;;9.33;;
4766;SDS011;2397;53.576;9.746;2023-06-19T05:27:07;10.60;;;9.60;;
4766;SDS011;2397;53.576;9.746;2023-06-19T05:29:33;10.40;;;9.40;;
4766;SDS011;2397;53.576;9.746;2023-06-19T05:32:00;10.97;;;9.90;;
4766;SDS011;2397;53.576;9.746;2023-06-19T05:34:27;9.77;;;8.87;;
4766;SDS011;2397;53.576;9.746;2023-06-19T05:36:54;9.90;;;9.10;;
4766;SDS011;2397;53.576;9.746;2023-06-19T05:39:20;10.30;;;9.40;;
4766;SDS011;2397;53.576;9.746;2023-06-19T05:41:47;10.77;;;9.83;;
4766;SDS011;2397;53.576;9.746;2023-06-19T05:44:14;10.47;;;9.67;;
4766;SDS011;2397;53.576;9.746;2023-06-19T05:46:42;10.97;;;9.87;;
4766;SDS011;2397;53.576;9.746;2023-06-19T05:49:09;10.20;;;9.20;;
4766;SDS011;2397;53.576;9.746;2023-06-19T05:51:36;12.43;;;9.73;;
4766;SDS011;2397;53.576;9.746;2023-06-19T05:54:03;11.53;;;10.37;;
4766;SDS011;2397;53.576;9.746;2023-06-19T05:56:30;10.97;;;9.87;;
4766;SDS011;2397;53.576;9.746;2023-06-19T05:58:59;10.60;;;9.57;;
4766;SDS011;2397;53.576;9.746;2023-06-19T06:01:27;11.53;;;10.43;;
4766;SDS011;2397;53.576;9.746;2023-06-19T06:03:57;12.40;;;9.50;;
4766;SDS011;2397;53.576;9.746;2023-06-19T06:06:23;11.50;;;10.50;;
4766;SDS011;2397;53.576;9.746;2023-06-19T06:08:52;11.17;;;10.20;;
4766;SDS011;2397;53.576;9.746;2023-06-19T06:11:18;10.67;;;9.77;;
4766;SDS011;2397;53.576;9.746;2023-06-19T06:13:45;11.20;;;10.30;;
4766;SDS011;2397;53.576;9.746;2023-06-19T06:16:11;11.97;;;10.90;;
4766;SDS011;2397;53.576;9.746;2023-06-19T06:18:38;11.57;;;10.57;;
4766;SDS011;2397;53.576;9.746;2023-06-19T06:21:05;11.50;;;10.50;;
4766;SDS011;2397;53.576;9.746;2023-06-19T06:23:31;9.57;;;8.77;;
4766;SDS011;2397;53.576;9.746;2023-06-19T06:25:58;9.70;;;8.90;;
4766;SDS011;2397;53.576;9.746;2023-06-19T06:28:29;13.50;;;9.23;;
4766;SDS011;2397;53.576;9.746;2023-06-19T06:30:55;10.60;;;9.43;;
4766;SDS011;2397;53.576;9.746;2023-06-19T06:33:22;10.63;;;9.73;;
4766;SDS011;2397;53.576;9.746;2023-06-19T06:35:49;10.30;;;9.50;;
4766;SDS011;2397;53.576;9.746;2023-06-19T06:38:18;9.33;;;8.63;;
4766;SDS011;2397;53.576;9.746;2023-06-19T06:40:44;10.47;;;9.37;;
4766;SDS011;2397;53.576;9.746;2023-06-19T06:43:12;10.97;;;9.93;;
4766;SDS011;2397;53.576;9.746;2023-06-19T06:45:39;11.10;;;10.10;;
4766;SDS011;2397;53.576;9.746;2023-06-19T06:48:08;10.10;;;9.20;;
4766;SDS011;2397;53.576;9.746;2023-06-19T06:50:34;10.97;;;9.90;;
4766;SDS011;2397;53.576;9.746;2023-06-19T06:53:01;9.90;;;9.00;;
4766;SDS011;2397;53.576;9.746;2023-06-19T06:55:27;10.53;;;9.40;;
4766;SDS011;2397;53.576;9.746;2023-06-19T06:57:54;10.40;;;9.40;;
4766;SDS011;2397;53.576;9.746;2023-06-19T07:00:20;10.10;;;9.20;;
4766;SDS011;2397;53.576;9.746;2023-06-19T07:02:47;11.63;;;9.90;;
4766;SDS011;2397;53.576;9.746;2023-06-19T07:05:17;11.23;;;10.13;;
4766;SDS011;2397;53.576;9.746;2023-06-19T07:07:44;10.50;;;9.50;;
4766;SDS011;2397;53.576;9.746;2023-06-19T07:10:11;10.70;;;9.70;;
4766;SDS011;2397;53.576;9.746;2023-06-19T07:12:44;11.50;;;10.30;;
4766;SDS011;2397;53.576;9.746;2023-06-19T07:15:11;10.53;;;9.63;;
4766;SDS011;2397;53.576;9.746;2023-06-19T07:17:38;10.00;;;9.20;;
4766;SDS011;2397;53.576;9.746;2023-06-19T07:20:05;12.50;;;9.87;;
4766;SDS011;2397;53.576;9.746;2023-06-19T07:22:32;10.30;;;9.33;;
4766;SDS011;2397;53.576;9.746;2023-06-19T07:24:59;10.50;;;9.60;;
4766;SDS011;2397;53.576;9.746;2023-06-19T07:27:26;10.43;;;9.37;;
4766;SDS011;2397;53.576;9.746;2023-06-19T07:29:53;10.23;;;9.23;;
4766;SDS011;2397;53.576;9.746;2023-06-19T07:32:20;13.33;;;9.40;;
4766;SDS011;2397;53.576;9.746;2023-06-19T07:34:47;10.70;;;9.70;;
4766;SDS011;2397;53.576;9.746;2023-06-19T07:37:14;11.77;;;10.77;;
4766;SDS011;2397;53.576;9.746;2023-06-19T07:39:44;10.77;;;9.87;;
4766;SDS011;2397;53.576;9.746;2023-06-19T07:42:16;10.60;;;9.70;;
4766;SDS011;2397;53.576;9.746;2023-06-19T07:44:44;10.97;;;9.87;;
4766;SDS011;2397;53.576;9.746;2023-06-19T07:47:11;11.63;;;10.60;;
4766;SDS011;2397;53.576;9.746;2023-06-19T07:49:38;11.63;;;10.60;;
4766;SDS011;2397;53.576;9.746;2023-06-19T07:52:04;11.03;;;9.97;;
4766;SDS011;2397;53.576;9.746;2023-06-19T07:54:33;10.77;;;9.77;;
4766;SDS011;2397;53.576;9.746;2023-06-19T07:57:00;12.30;;;11.07;;
4766;SDS011;2397;53.576;9.746;2023-06-19T07:59:27;12.03;;;10.80;;
4766;SDS011;2397;53.576;9.746;2023-06-19T08:01:54;13.17;;;11.63;;
4766;SDS011;2397;53.576;9.746;2023-06-19T08:04:20;12.43;;;11.23;;
4766;SDS011;2397;53.576;9.746;2023-06-19T08:06:47;11.57;;;10.57;;
4766;SDS011;2397;53.576;9.746;2023-06-19T08:09:14;11.87;;;10.77;;
4766;SDS011;2397;53.576;9.746;2023-06-19T08:11:40;11.87;;;10.87;;
4766;SDS011;2397;53.576;9.746;2023-06-19T08:14:07;12.93;;;11.63;;
4766;SDS011;2397;53.576;9.746;2023-06-19T08:16:33;12.17;;;10.90;;
4766;SDS011;2397;53.576;9.746;2023-06-19T08:19:00;14.80;;;11.50;;
4766;SDS011;2397;53.576;9.746;2023-06-19T08:21:26;11.97;;;10.83;;
4766;SDS011;2397;53.576;9.746;2023-06-19T08:23:53;11.17;;;10.23;;
4766;SDS011;2397;53.576;9.746;2023-06-19T08:26:19;12.70;;;11.03;;
4766;SDS011;2397;53.576;9.746;2023-06-19T08:28:46;12.53;;;11.33;;
4766;SDS011;2397;53.576;9.746;2023-06-19T08:31:14;15.07;;;11.20;;
4766;SDS011;2397;53.576;9.746;2023-06-19T08:33:40;12.07;;;10.67;;
4766;SDS011;2397;53.576;9.746;2023-06-19T08:36:07;11.40;;;10.40;;
4766;SDS011;2397;53.576;9.746;2023-06-19T08:38:33;11.00;;;9.90;;
4766;SDS011;2397;53.576;9.746;2023-06-19T08:41:00;12.57;;;11.27;;
4766;SDS011;2397;53.576;9.746;2023-06-19T08:43:26;11.77;;;10.00;;
4766;SDS011;2397;53.576;9.746;2023-06-19T08:46:06;11.50;;;10.40;;
4766;SDS011;2397;53.576;9.746;2023-06-19T08:48:36;12.70;;;11.50;;
4766;SDS011;2397;53.576;9.746;2023-06-19T08:51:03;12.23;;;11.10;;
4766;SDS011;2397;53.576;9.746;2023-06-19T08:53:35;12.00;;;10.93;;
4766;SDS011;2397;53.576;9.746;2023-06-19T08:56:05;12.07;;;10.97;;
4766;SDS011;2397;53.576;9.746;2023-06-19T08:58:31;11.93;;;10.93;;
4766;SDS011;2397;53.576;9.746;2023-06-19T09:00:58;13.23;;;10.70;;
4766;SDS011;2397;53.576;9.746;2023-06-19T09:03:25;10.70;;;9.80;;
4766;SDS011;2397;53.576;9.746;2023-06-19T09:05:52;11.17;;;10.07;;
4766;SDS011;2397;53.576;9.746;2023-06-19T09:08:20;10.07;;;9.30;;
4766;SDS011;2397;53.576;9.746;2023-06-19T09:10:55;11.30;;;10.30;;
4766;SDS011;2397;53.576;9.746;2023-06-19T09:13:22;11.37;;;10.37;;
4766;SDS011;2397;53.576;9.746;2023-06-19T09:15:56;11.00;;;9.60;;
4766;SDS011;2397;53.576;9.746;2023-06-19T09:18:46;11.20;;;10.30;;
4766;SDS011;2397;53.576;9.746;2023-06-19T09:21:17;11.90;;;10.90;;
4766;SDS011;2397;53.576;9.746;2023-06-19T09:23:45;12.17;;;10.97;;
4766;SDS011;2397;53.576;9.746;2023-06-19T09:26:16;12.80;;;11.03;;
4766;SDS011;2397;53.576;9.746;2023-06-19T09:28:45;11.67;;;10.67;;
4766;SDS011;2397;53.576;9.746;2023-06-19T09:31:12;13.07;;;11.20;;
4766;SDS011;2397;53.576;9.746;2023-06-19T09:33:39;11.57;;;10.43;;
4766;SDS011;2397;53.576;9.746;2023-06-19T09:36:06;10.93;;;9.93;;
4766;SDS011;2397;53.576;9.746;2023-06-19T09:38:35;11.90;;;10.70;;
4766;SDS011;2397;53.576;9.746;2023-06-19T09:41:06;12.53;;;11.37;;
4766;SDS011;2397;53.576;9.746;2023-06-19T09:43:35;11.27;;;10.30;;
4766;SDS011;2397;53.576;9.746;2023-06-19T09:46:04;11.43;;;10.27;;
4766;SDS011;2397;53.576;9.746;2023-06-19T09:48:32;11.67;;;10.50;;
4766;SDS011;2397;53.576;9.746;2023-06-19T09:51:08;12.90;;;9.80;;
4766;SDS011;2397;53.576;9.746;2023-06-19T09:53:38;10.73;;;9.73;;
4766;SDS011;2397;53.576;9.746;2023-06-19T09:56:06;12.43;;;11.20;;
4766;SDS011;2397;53.576;9.746;2023-06-19T09:58:34;13.03;;;10.40;;
4766;SDS011;2397;53.576;9.746;2023-06-19T10:01:03;10.43;;;9.53;;
4766;SDS011;2397;53.576;9.746;2023-06-19T10:03:31;11.20;;;10.10;;
4766;SDS011;2397;53.576;9.746;2023-06-19T10:06:00;11.60;;;10.57;;
4766;SDS011;2397;53.576;9.746;2023-06-19T10:08:28;11.53;;;10.50;;
4766;SDS011;2397;53.576;9.746;2023-06-19T10:10:56;11.90;;;10.80;;
4766;SDS011;2397;53.576;9.746;2023-06-19T10:13:30;12.60;;;10.27;;
4766;SDS011;2397;53.576;9.746;2023-06-19T10:15:58;11.53;;;10.60;;
4766;SDS011;2397;53.576;9.746;2023-06-19T10:18:25;11.70;;;10.47;;
4766;SDS011;2397;53.576;9.746;2023-06-19T10:20:53;11.60;;;10.43;;
4766;SDS011;2397;53.576;9.746;2023-06-19T10:23:21;10.90;;;9.90;;
4766;SDS011;2397;53.576;9.746;2023-06-19T10:28:30;11.27;;;10.27;;
4766;SDS011;2397;53.576;9.746;2023-06-19T10:31:02;12.90;;;9.33;;
4766;SDS011;2397;53.576;9.746;2023-06-19T10:33:31;8.90;;;8.20;;
4766;SDS011;2397;53.576;9.746;2023-06-19T10:36:00;8.83;;;8.13;;
4766;SDS011;2397;53.576;9.746;2023-06-19T10:38:28;8.40;;;7.80;;
4766;SDS011;2397;53.576;9.746;2023-06-19T10:40:55;10.07;;;9.33;;
4766;SDS011;2397;53.576;9.746;2023-06-19T10:43:23;8.50;;;7.70;;
4766;SDS011;2397;53.576;9.746;2023-06-19T10:45:51;9.73;;;8.83;;
4766;SDS011;2397;53.576;9.746;2023-06-19T10:48:18;9.10;;;8.27;;
4766;SDS011;2397;53.576;9.746;2023-06-19T10:50:49;8.53;;;7.77;;
4766;SDS011;2397;53.576;9.746;2023-06-19T10:53:23;8.50;;;7.90;;
4766;SDS011;2397;53.576;9.746;2023-06-19T10:55:54;8.67;;;7.93;;
4766;SDS011;2397;53.576;9.746;2023-06-19T10:58:22;8.83;;;8.13;;
4766;SDS011;2397;53.576;9.746;2023-06-19T11:00:49;9.03;;;8.30;;
4766;SDS011;2397;53.576;9.746;2023-06-19T11:03:16;8.63;;;7.83;;
4766;SDS011;2397;53.576;9.746;2023-06-19T11:05:45;7.70;;;7.10;;
4766;SDS011;2397;53.576;9.746;2023-06-19T11:08:17;8.63;;;7.93;;
4766;SDS011;2397;53.576;9.746;2023-06-19T11:10:45;7.53;;;6.93;;
4766;SDS011;2397;53.576;9.746;2023-06-19T11:13:16;8.47;;;7.67;;
4766;SDS011;2397;53.576;9.746;2023-06-19T11:15:44;8.10;;;7.57;;
4766;SDS011;2397;53.576;9.746;2023-06-19T11:18:11;8.50;;;7.90;;
4766;SDS011;2397;53.576;9.746;2023-06-19T11:20:46;8.00;;;7.30;;
4766;SDS011;2397;53.576;9.746;2023-06-19T11:23:17;7.90;;;7.20;;
4766;SDS011;2397;53.576;9.746;2023-06-19T11:25:51;10.23;;;7.77;;
4766;SDS011;2397;53.576;9.746;2023-06-19T11:28:18;7.87;;;7.17;;
4766;SDS011;2397;53.576;9.746;2023-06-19T11:30:48;9.93;;;7.60;;
4766;SDS011;2397;53.576;9.746;2023-06-19T11:33:23;8.07;;;7.40;;
4766;SDS011;2397;53.576;9.746;2023-06-19T11:35:54;7.83;;;7.13;;
4766;SDS011;2397;53.576;9.746;2023-06-19T11:38:24;7.57;;;7.07;;
4766;SDS011;2397;53.576;9.746;2023-06-19T11:40:53;8.00;;;7.30;;
4766;SDS011;2397;53.576;9.746;2023-06-19T11:43:26;8.70;;;8.00;;
4766;SDS011;2397;53.576;9.746;2023-06-19T11:45:54;7.87;;;7.17;;
4766;SDS011;2397;53.576;9.746;2023-06-19T11:48:28;8.40;;;7.70;;
4766;SDS011;2397;53.576;9.746;2023-06-19T11:50:54;8.57;;;7.67;;
4766;SDS011;2397;53.576;9.746;2023-06-19T11:53:22;7.80;;;7.20;;
4766;SDS011;2397;53.576;9.746;2023-06-19T11:55:52;10.30;;;7.00;;
4766;SDS011;2397;53.576;9.746;2023-06-19T11:58:19;7.53;;;6.83;;
4766;SDS011;2397;53.576;9.746;2023-06-19T12:00:47;8.53;;;7.40;;
4766;SDS011;2397;53.576;9.746;2023-06-19T12:03:14;7.73;;;7.03;;
4766;SDS011;2397;53.576;9.746;2023-06-19T12:05:41;7.43;;;6.43;;
4766;SDS011;2397;53.576;9.746;2023-06-19T12:08:08;7.53;;;6.70;;
4766;SDS011;2397;53.576;9.746;2023-06-19T12:10:34;7.40;;;6.70;;
4766;SDS011;2397;53.576;9.746;2023-06-19T12:13:01;7.60;;;6.90;;
4766;SDS011;2397;53.576;9.746;2023-06-19T12:15:27;7.30;;;6.70;;
4766;SDS011;2397;53.576;9.746;2023-06-19T12:17:54;8.90;;;6.50;;
4766;SDS011;2397;53.576;9.746;2023-06-19T12:20:24;7.00;;;6.40;;
4766;SDS011;2397;53.576;9.746;2023-06-19T12:22:52;8.00;;;7.20;;
4766;SDS011;2397;53.576;9.746;2023-06-19T12:25:18;16.33;;;8.20;;
4766;SDS011;2397;53.576;9.746;2023-06-19T12:27:45;8.50;;;7.70;;
4766;SDS011;2397;53.576;9.746;2023-06-19T12:30:12;7.97;;;6.97;;
4766;SDS011;2397;53.576;9.746;2023-06-19T12:32:38;9.53;;;8.57;;
4766;SDS011;2397;53.576;9.746;2023-06-19T12:35:05;7.93;;;7.33;;
4766;SDS011;2397;53.576;9.746;2023-06-19T12:37:32;7.63;;;7.03;;
4766;SDS011;2397;53.576;9.746;2023-06-19T12:39:59;9.00;;;8.30;;
4766;SDS011;2397;53.576;9.746;2023-06-19T12:42:25;8.80;;;7.03;;
4766;SDS011;2397;53.576;9.746;2023-06-19T12:44:52;7.77;;;6.50;;
4766;SDS011;2397;53.576;9.746;2023-06-19T12:47:19;6.53;;;5.90;;
4766;SDS011;2397;53.576;9.746;2023-06-19T12:49:47;7.00;;;6.27;;
4766;SDS011;2397;53.576;9.746;2023-06-19T12:52:13;7.43;;;6.93;;
4766;SDS011;2397;53.576;9.746;2023-06-19T12:54:40;8.60;;;5.80;;
4766;SDS011;2397;53.576;9.746;2023-06-19T12:57:08;6.20;;;5.60;;
4766;SDS011;2397;53.576;9.746;2023-06-19T12:59:35;6.83;;;6.00;;
4766;SDS011;2397;53.576;9.746;2023-06-19T13:02:02;11.03;;;6.50;;
4766;SDS011;2397;53.576;9.746;2023-06-19T13:04:28;7.50;;;6.90;;
4766;SDS011;2397;53.576;9.746;2023-06-19T13:06:55;7.20;;;6.60;;
4766;SDS011;2397;53.576;9.746;2023-06-19T13:09:22;7.03;;;6.43;;
4766;SDS011;2397;53.576;9.746;2023-06-19T13:11:50;6.40;;;5.90;;
4766;SDS011;2397;53.576;9.746;2023-06-19T13:14:17;6.13;;;5.67;;
4766;SDS011;2397;53.576;9.746;2023-06-19T13:16:43;5.87;;;5.27;;
4766;SDS011;2397;53.576;9.746;2023-06-19T13:19:13;6.10;;;5.70;;
4766;SDS011;2397;53.576;9.746;2023-06-19T13:21:40;5.37;;;4.83;;
4766;SDS011;2397;53.576;9.746;2023-06-19T13:24:07;6.70;;;5.67;;
4766;SDS011;2397;53.576;9.746;2023-06-19T13:26:34;6.70;;;6.10;;
4766;SDS011;2397;53.576;9.746;2023-06-19T13:29:01;6.37;;;5.87;;
4766;SDS011;2397;53.576;9.746;2023-06-19T13:31:28;6.03;;;5.47;;
4766;SDS011;2397;53.576;9.746;2023-06-19T13:33:54;6.37;;;5.93;;
4766;SDS011;2397;53.576;9.746;2023-06-19T13:36:21;6.20;;;5.70;;
4766;SDS011;2397;53.576;9.746;2023-06-19T13:38:49;5.90;;;5.13;;
4766;SDS011;2397;53.576;9.746;2023-06-19T13:41:16;6.00;;;5.20;;
4766;SDS011;2397;53.576;9.746;2023-06-19T13:43:43;5.57;;;5.17;;
4766;SDS011;2397;53.576;9.746;2023-06-19T13:46:12;5.00;;;4.60;;
4766;SDS011;2397;53.576;9.746;2023-06-19T13:48:38;5.70;;;5.10;;
4766;SDS011;2397;53.576;9.746;2023-06-19T13:51:05;7.27;;;5.60;;
4766;SDS011;2397;53.576;9.746;2023-06-19T13:53:31;5.77;;;5.37;;
4766;SDS011;2397;53.576;9.746;2023-06-19T13:55:59;5.67;;;5.10;;
4766;SDS011;2397;53.576;9.746;2023-06-19T13:58:25;6.37;;;5.37;;
4766;SDS011;2397;53.576;9.746;2023-06-19T14:00:52;6.10;;;5.60;;
4766;SDS011;2397;53.576;9.746;2023-06-19T14:03:19;5.30;;;4.90;;
4766;SDS011;2397;53.576;9.746;2023-06-19T14:05:45;5.27;;;4.97;;
4766;SDS011;2397;53.576;9.746;2023-06-19T14:08:12;4.67;;;4.37;;
4766;SDS011;2397;53.576;9.746;2023-06-19T14:10:39;5.27;;;4.87;;
4766;SDS011;2397;53.576;9.746;2023-06-19T14:13:06;7.90;;;5.70;;
4766;SDS011;2397;53.576;9.746;2023-06-19T14:15:32;4.80;;;4.50;;
4766;SDS011;2397;53.576;9.746;2023-06-19T14:17:59;5.50;;;5.10;;
4766;SDS011;2397;53.576;9.746;2023-06-19T14:20:26;7.43;;;5.60;;
4766;SDS011;2397;53.576;9.746;2023-06-19T14:22:52;6.50;;;5.93;;
4766;SDS011;2397;53.576;9.746;2023-06-19T14:25:19;6.40;;;6.00;;
4766;SDS011;2397;53.576;9.746;2023-06-19T14:27:45;5.30;;;4.90;;
4766;SDS011;2397;53.576;9.746;2023-06-19T14:30:12;5.83;;;4.50;;
4766;SDS011;2397;53.576;9.746;2023-06-19T14:32:39;5.23;;;4.83;;
4766;SDS011;2397;53.576;9.746;2023-06-19T14:35:06;5.43;;;5.03;;
4766;SDS011;2397;53.576;9.746;2023-06-19T14:37:33;5.70;;;5.30;;
4766;SDS011;2397;53.576;9.746;2023-06-19T14:40:00;5.37;;;5.00;;
4766;SDS011;2397;53.576;9.746;2023-06-19T14:42:26;5.37;;;4.97;;
4766;SDS011;2397;53.576;9.746;2023-06-19T14:44:53;5.20;;;4.80;;
4766;SDS011;2397;53.576;9.746;2023-06-19T14:47:20;5.17;;;4.87;;
4766;SDS011;2397;53.576;9.746;2023-06-19T14:49:47;4.60;;;4.20;;
4766;SDS011;2397;53.576;9.746;2023-06-19T14:52:14;5.53;;;5.03;;
4766;SDS011;2397;53.576;9.746;2023-06-19T14:54:42;5.00;;;4.47;;
4766;SDS011;2397;53.576;9.746;2023-06-19T14:57:09;5.00;;;4.60;;
4766;SDS011;2397;53.576;9.746;2023-06-19T14:59:35;6.53;;;5.07;;
4766;SDS011;2397;53.576;9.746;2023-06-19T15:02:02;6.00;;;5.50;;
4766;SDS011;2397;53.576;9.746;2023-06-19T15:04:29;6.30;;;5.40;;
4766;SDS011;2397;53.576;9.746;2023-06-19T15:06:55;6.83;;;4.73;;
4766;SDS011;2397;53.576;9.746;2023-06-19T15:09:22;5.87;;;5.47;;
4766;SDS011;2397;53.576;9.746;2023-06-19T15:11:48;4.73;;;4.33;;
4766;SDS011;2397;53.576;9.746;2023-06-19T15:14:15;4.60;;;4.30;;
4766;SDS011;2397;53.576;9.746;2023-06-19T15:16:43;4.67;;;4.20;;
4766;SDS011;2397;53.576;9.746;2023-06-19T15:19:10;4.87;;;4.47;;